Time;durP1;ratioP1;P1;durP2;ratioP2;P2;SDS_P1;SDS_P2;PMS_P1;PMS_P2;Temp;Humidity;BMP_temperature;BMP_pressure;BME280_temperature;BME280_humidity;BME280_pressure;Samples;Min_cycle;Max_cycle;Signal;HPM_P1;HPM_P2
2022/12/26 00:00:07;;;;;;;5.70;3.10;;;13.10;99.90;;;;;;5028554;28;20444;-75
2022/12/26 00:02:53;;;;;;;5.17;3.17;;;13.20;99.90;;;;;;5025236;28;20441;-75
2022/12/26 00:05:38;;;;;;;5.77;3.00;;;13.20;99.90;;;;;;5034421;28;20479;-75
2022/12/26 00:08:24;;;;;;;6.30;2.93;;;13.20;99.90;;;;;;5027378;28;20576;-75
2022/12/26 00:11:10;;;;;;;4.43;3.03;;;13.10;99.90;;;;;;5029378;28;20423;-76
2022/12/26 00:13:58;;;;;;;7.50;2.97;;;13.10;99.90;;;;;;5020402;28;21030;-75
2022/12/26 00:16:46;;;;;;;6.20;3.20;;;13.10;99.90;;;;;;5040844;28;20423;-72
2022/12/26 00:19:31;;;;;;;4.97;2.60;;;13.10;99.90;;;;;;5028108;28;20468;-74
2022/12/26 00:22:17;;;;;;;6.00;2.60;;;13.20;99.90;;;;;;5030949;28;20443;-74
2022/12/26 00:25:03;;;;;;;4.17;2.90;;;13.20;99.90;;;;;;5028852;28;20550;-74
2022/12/26 00:27:49;;;;;;;5.30;3.13;;;13.20;99.90;;;;;;5016850;28;20508;-74
2022/12/26 00:30:37;;;;;;;10.63;3.00;;;13.30;99.90;;;;;;5027861;28;20504;-73
2022/12/26 00:33:23;;;;;;;3.43;2.47;;;13.30;99.90;;;;;;5030942;28;21045;-73
2022/12/26 00:36:11;;;;;;;6.93;3.17;;;13.50;99.90;;;;;;5033219;28;21179;-74
2022/12/26 00:38:58;;;;;;;4.23;3.10;;;13.50;99.90;;;;;;5031939;28;20486;-74
2022/12/26 00:41:44;;;;;;;4.97;2.80;;;13.50;99.90;;;;;;5033795;28;20425;-74
2022/12/26 00:44:29;;;;;;;5.13;2.43;;;13.50;99.90;;;;;;5031771;28;20414;-74
2022/12/26 00:47:16;;;;;;;3.83;2.80;;;13.40;99.90;;;;;;5023747;28;20831;-74
2022/12/26 00:50:02;;;;;;;8.50;2.63;;;13.40;99.90;;;;;;5036907;28;20461;-74
2022/12/26 00:52:48;;;;;;;5.70;3.47;;;13.40;99.90;;;;;;5033978;28;20461;-73
2022/12/26 00:55:33;;;;;;;6.57;3.50;;;13.50;99.90;;;;;;5023543;28;20536;-74
2022/12/26 00:58:20;;;;;;;5.03;3.07;;;13.50;99.90;;;;;;5026340;28;20950;-74
2022/12/26 01:01:07;;;;;;;4.57;3.13;;;13.50;99.90;;;;;;5029301;28;20445;-75
2022/12/26 01:03:54;;;;;;;4.37;2.90;;;13.50;99.90;;;;;;5033183;28;20979;-74
2022/12/26 01:06:39;;;;;;;6.17;3.10;;;13.50;99.90;;;;;;5031183;28;20535;-75
2022/12/26 01:09:25;;;;;;;5.20;3.30;;;13.50;99.90;;;;;;5031320;28;20999;-75
2022/12/26 01:12:10;;;;;;;10.10;3.00;;;13.50;99.90;;;;;;5028923;28;20497;-74
2022/12/26 01:14:57;;;;;;;8.10;3.40;;;13.60;99.90;;;;;;5034191;28;21043;-73
2022/12/26 01:17:43;;;;;;;4.50;2.80;;;13.60;99.90;;;;;;5031550;28;20589;-74
2022/12/26 01:20:30;;;;;;;4.23;3.30;;;13.60;99.90;;;;;;5035467;28;20932;-74
2022/12/26 01:23:15;;;;;;;7.60;2.77;;;13.60;99.90;;;;;;5037335;28;20996;-73
2022/12/26 01:26:02;;;;;;;6.07;2.77;;;13.60;99.90;;;;;;5028761;28;20438;-74
2022/12/26 01:28:48;;;;;;;5.13;2.87;;;13.60;99.90;;;;;;5025608;28;20562;-73
2022/12/26 01:31:33;;;;;;;6.47;2.90;;;13.50;99.90;;;;;;5032052;28;20548;-74
2022/12/26 01:34:19;;;;;;;7.10;3.10;;;13.50;99.90;;;;;;5032741;28;20430;-74
2022/12/26 01:37:06;;;;;;;4.00;2.73;;;13.40;99.90;;;;;;5029169;28;20860;-74
2022/12/26 01:39:52;;;;;;;4.67;2.63;;;13.40;99.90;;;;;;5033307;28;20399;-74
2022/12/26 01:42:39;;;;;;;5.60;2.70;;;13.50;99.90;;;;;;5033503;28;20479;-74
2022/12/26 01:45:28;;;;;;;4.77;3.37;;;13.50;99.90;;;;;;5025922;28;20955;-74
2022/12/26 01:48:19;;;;;;;6.00;3.30;;;13.50;99.90;;;;;;5021821;28;20443;-74
2022/12/26 01:51:06;;;;;;;4.87;3.47;;;13.40;99.90;;;;;;5037290;28;20774;-74
2022/12/26 01:53:58;;;;;;;4.30;3.07;;;13.40;99.90;;;;;;5026695;28;20445;-74
2022/12/26 01:56:46;;;;;;;6.10;3.13;;;13.40;99.90;;;;;;5030620;28;20476;-74
2022/12/26 01:59:36;;;;;;;3.90;3.20;;;13.40;99.90;;;;;;5037478;28;20487;-75
2022/12/26 02:02:22;;;;;;;8.50;4.40;;;13.40;99.90;;;;;;5033792;28;20432;-75
2022/12/26 02:08:15;;;;;;;5.60;2.80;;;13.30;99.90;;;;;;5025419;28;20434;-75
2022/12/26 02:11:10;;;;;;;3.93;2.93;;;13.20;99.90;;;;;;5027798;28;20559;-74
2022/12/26 02:13:57;;;;;;;4.67;2.57;;;13.20;99.90;;;;;;5028819;28;21172;-74
2022/12/26 02:16:43;;;;;;;6.40;3.20;;;13.20;99.90;;;;;;5024764;28;20535;-74
2022/12/26 02:19:38;;;;;;;5.00;3.07;;;13.10;99.90;;;;;;5038686;28;20980;-75
2022/12/26 02:22:51;;;;;;;11.13;3.30;;;13.10;99.90;;;;;;5038459;28;20407;-74
2022/12/26 02:26:10;;;;;;;5.07;3.27;;;13.20;99.90;;;;;;5034373;28;20472;-74
2022/12/26 02:29:32;;;;;;;6.60;2.50;;;13.10;99.90;;;;;;5026983;28;20435;-74
2022/12/26 02:32:28;;;;;;;4.80;3.33;;;13.20;99.90;;;;;;5038699;28;20418;-73
2022/12/26 02:35:24;;;;;;;6.23;3.13;;;13.20;99.90;;;;;;5030651;28;20550;-75
2022/12/26 02:38:22;;;;;;;4.30;2.77;;;13.20;99.90;;;;;;5030159;28;20539;-75
2022/12/26 02:41:18;;;;;;;4.53;3.00;;;13.20;99.90;;;;;;5033535;28;20426;-74
2022/12/26 02:47:17;;;;;;;4.80;3.07;;;13.20;99.90;;;;;;5019641;28;21031;-74
2022/12/26 03:18:56;;;;;;;5.70;3.07;;;13.20;99.90;;;;;;5028393;28;20499;-74
2022/12/26 03:21:45;;;;;;;6.37;2.80;;;13.20;99.90;;;;;;5027658;28;20440;-74
2022/12/26 03:26:38;;;;;;;4.10;2.60;;;13.20;99.90;;;;;;5028717;28;20546;-75
2022/12/26 03:27:35;;;;;;;6.40;3.23;;;13.20;99.90;;;;;;5029905;28;20449;-74
2022/12/26 03:36:40;;;;;;;3.47;2.37;;;13.20;99.90;;;;;;5024453;28;20482;-74
2022/12/26 04:21:02;;;;;;;4.20;2.83;;;13.50;99.90;;;;;;5032852;28;20540;-74
2022/12/26 04:45:38;;;;;;;4.00;2.60;;;13.40;99.90;;;;;;5024451;28;20550;-74
2022/12/26 04:51:27;;;;;;;6.00;2.90;;;13.40;99.90;;;;;;5029418;28;20488;-75
2022/12/26 04:54:13;;;;;;;4.50;2.50;;;13.30;99.90;;;;;;5033691;28;20452;-74
2022/12/26 04:56:59;;;;;;;6.37;3.20;;;13.30;99.90;;;;;;5023585;28;20411;-74
2022/12/26 04:59:46;;;;;;;8.53;3.63;;;13.30;99.90;;;;;;5030363;28;20560;-74
2022/12/26 05:11:48;;;;;;;5.83;3.50;;;13.20;99.90;;;;;;5030357;28;20563;-74
2022/12/26 05:14:34;;;;;;;5.80;3.03;;;13.20;99.90;;;;;;5023735;28;20452;-74
2022/12/26 05:29:35;;;;;;;4.97;2.90;;;13.20;99.90;;;;;;5031656;28;20433;-75
2022/12/26 05:35:26;;;;;;;4.40;3.23;;;13.20;99.90;;;;;;5020953;28;20411;-74
2022/12/26 05:38:12;;;;;;;3.90;2.33;;;13.20;99.90;;;;;;5030770;28;20455;-74
2022/12/26 05:40:58;;;;;;;3.00;2.50;;;13.20;99.90;;;;;;5028489;28;20480;-74
2022/12/26 05:43:43;;;;;;;3.67;2.57;;;13.20;99.90;;;;;;5031098;28;20448;-74
2022/12/26 05:46:29;;;;;;;3.67;2.53;;;13.30;99.90;;;;;;5027959;28;20475;-74
2022/12/26 05:49:16;;;;;;;4.20;3.10;;;13.30;99.90;;;;;;5031970;28;20517;-74
2022/12/26 05:52:02;;;;;;;4.30;2.73;;;13.30;99.90;;;;;;5025800;28;20568;-75
2022/12/26 05:54:48;;;;;;;5.90;2.93;;;13.30;99.90;;;;;;5028269;28;20541;-75
2022/12/26 05:57:33;;;;;;;4.00;3.00;;;13.30;99.90;;;;;;5034697;28;20445;-74
2022/12/26 06:00:19;;;;;;;6.10;3.03;;;13.30;99.90;;;;;;5033183;28;20439;-74
2022/12/26 06:03:05;;;;;;;5.80;2.73;;;13.30;99.90;;;;;;5030604;28;20414;-74
2022/12/26 06:05:52;;;;;;;4.53;3.00;;;13.20;99.90;;;;;;5028137;28;20466;-74
2022/12/26 06:08:37;;;;;;;5.90;2.73;;;13.20;99.90;;;;;;5032371;28;20458;-74
2022/12/26 06:11:25;;;;;;;12.83;2.83;;;13.30;99.90;;;;;;5028862;28;20457;-74
2022/12/26 06:14:11;;;;;;;5.87;2.87;;;13.30;99.90;;;;;;5027707;28;20423;-75
2022/12/26 06:16:56;;;;;;;6.23;3.13;;;13.30;99.90;;;;;;5029702;28;20444;-74
2022/12/26 06:19:42;;;;;;;7.20;3.10;;;13.30;99.90;;;;;;5031140;28;21068;-75
2022/12/26 06:22:30;;;;;;;5.50;2.73;;;13.30;99.90;;;;;;5035372;28;21018;-74
2022/12/26 06:25:17;;;;;;;4.90;2.93;;;13.30;99.90;;;;;;5025665;28;20474;-74
2022/12/26 06:28:02;;;;;;;10.13;3.33;;;13.30;99.90;;;;;;5030817;28;20517;-75
2022/12/26 06:30:48;;;;;;;6.53;2.90;;;13.30;99.90;;;;;;5032600;28;20534;-73
2022/12/26 06:33:34;;;;;;;4.00;2.60;;;13.30;99.90;;;;;;5030819;28;20443;-74
2022/12/26 06:36:22;;;;;;;6.20;2.70;;;13.30;99.90;;;;;;5030687;28;20995;-74
2022/12/26 06:39:08;;;;;;;3.57;2.77;;;13.30;99.90;;;;;;5027098;28;20521;-75
2022/12/26 06:41:54;;;;;;;6.43;3.03;;;13.20;99.90;;;;;;5033392;28;20440;-74
2022/12/26 06:44:40;;;;;;;6.53;3.40;;;13.20;99.90;;;;;;5029039;28;20440;-75
2022/12/26 06:47:25;;;;;;;7.10;3.20;;;13.20;99.90;;;;;;5034633;28;20503;-74
2022/12/26 06:50:12;;;;;;;6.53;3.00;;;13.20;99.90;;;;;;5032595;28;20456;-75
2022/12/26 06:52:57;;;;;;;5.07;2.77;;;13.10;99.90;;;;;;5035590;28;20440;-74
2022/12/26 06:55:44;;;;;;;7.40;3.30;;;13.10;99.90;;;;;;5027103;28;20414;-75
2022/12/26 06:58:30;;;;;;;9.33;2.60;;;13.10;99.90;;;;;;5038498;28;20470;-74
2022/12/26 07:01:17;;;;;;;3.83;2.43;;;13.10;99.90;;;;;;5032945;28;21053;-74
2022/12/26 07:04:04;;;;;;;6.30;3.30;;;13.10;99.90;;;;;;5028010;28;20443;-75
2022/12/26 07:06:50;;;;;;;10.20;3.90;;;13.10;99.90;;;;;;5032854;28;20577;-73
2022/12/26 07:09:36;;;;;;;4.43;3.27;;;13.10;99.90;;;;;;5037464;28;20514;-75
2022/12/26 07:12:23;;;;;;;4.90;3.20;;;13.10;99.90;;;;;;5034093;28;20448;-74
2022/12/26 07:15:10;;;;;;;5.73;2.80;;;13.00;99.90;;;;;;5033821;28;20426;-74
2022/12/26 07:17:56;;;;;;;4.10;3.60;;;12.90;99.90;;;;;;5023376;28;20464;-74
2022/12/26 07:20:41;;;;;;;5.90;3.40;;;12.80;99.90;;;;;;5032159;28;20820;-74
2022/12/26 07:23:28;;;;;;;3.33;2.67;;;12.70;99.90;;;;;;5028212;28;20599;-74
2022/12/26 07:26:14;;;;;;;14.63;3.90;;;12.60;99.90;;;;;;5032215;28;20447;-74
2022/12/26 07:29:01;;;;;;;6.10;3.30;;;12.50;99.90;;;;;;5028975;28;20467;-75
2022/12/26 07:31:47;;;;;;;7.47;3.23;;;12.50;99.90;;;;;;5031220;28;20444;-74
2022/12/26 07:34:32;;;;;;;7.83;3.20;;;12.50;99.90;;;;;;5022537;28;20498;-74
2022/12/26 07:37:18;;;;;;;5.73;3.40;;;12.50;99.90;;;;;;5029849;28;20852;-74
2022/12/26 07:40:04;;;;;;;12.30;3.70;;;12.50;99.90;;;;;;5034313;28;20476;-74
2022/12/26 07:42:53;;;;;;;7.93;3.07;;;12.40;99.90;;;;;;5026515;28;20449;-73
2022/12/26 07:45:40;;;;;;;6.33;3.50;;;12.40;99.90;;;;;;5029250;28;20952;-74
2022/12/26 07:48:25;;;;;;;5.13;3.40;;;12.40;99.90;;;;;;5029630;28;21040;-74
2022/12/26 07:51:11;;;;;;;7.20;3.60;;;12.50;99.90;;;;;;5034594;28;20445;-74
2022/12/26 07:53:56;;;;;;;7.03;3.90;;;12.50;99.90;;;;;;5022527;28;20547;-74
2022/12/26 07:56:42;;;;;;;6.77;3.80;;;12.60;99.90;;;;;;5029740;28;20444;-75
2022/12/26 07:59:28;;;;;;;7.10;4.30;;;12.50;99.90;;;;;;5035534;22;20853;-76
2022/12/26 08:02:16;;;;;;;7.97;5.40;;;12.60;99.90;;;;;;4982017;28;20433;-75
2022/12/26 08:05:02;;;;;;;6.77;3.43;;;12.50;99.90;;;;;;4992861;28;20659;-76
2022/12/26 08:07:48;;;;;;;5.73;3.50;;;12.50;99.90;;;;;;5004038;28;20452;-76
2022/12/26 08:10:34;;;;;;;5.40;3.97;;;12.50;99.90;;;;;;4976542;28;20470;-76
2022/12/26 08:13:19;;;;;;;8.93;3.37;;;12.50;99.90;;;;;;4964737;28;20455;-76
2022/12/26 08:16:06;;;;;;;11.90;7.50;;;12.50;99.90;;;;;;4971897;28;20824;-76
2022/12/26 08:18:53;;;;;;;5.27;3.57;;;12.50;99.90;;;;;;4977734;28;20462;-76
2022/12/26 08:21:39;;;;;;;5.57;4.53;;;12.40;99.90;;;;;;4976006;28;20488;-76
2022/12/26 08:24:24;;;;;;;9.03;4.43;;;12.40;99.90;;;;;;4968808;28;20569;-76
2022/12/26 08:27:11;;;;;;;8.43;3.70;;;12.40;99.90;;;;;;4970875;28;20622;-76
2022/12/26 08:29:56;;;;;;;10.07;5.00;;;12.40;99.90;;;;;;4969714;28;20433;-75
2022/12/26 08:32:42;;;;;;;8.90;5.10;;;12.40;99.90;;;;;;4965304;28;20422;-75
2022/12/26 08:35:29;;;;;;;6.77;4.20;;;12.50;99.90;;;;;;4965569;28;20451;-75
2022/12/26 08:38:15;;;;;;;7.50;3.73;;;12.60;99.90;;;;;;4980256;28;20524;-75
2022/12/26 08:41:00;;;;;;;7.80;4.47;;;12.50;99.90;;;;;;4978592;28;20521;-75
2022/12/26 08:43:49;;;;;;;5.80;4.17;;;12.50;99.90;;;;;;4966534;28;20946;-75
2022/12/26 08:46:34;;;;;;;10.27;4.37;;;12.40;99.90;;;;;;4970869;28;20808;-75
2022/12/26 08:49:20;;;;;;;7.40;4.13;;;12.40;99.90;;;;;;4976900;28;20511;-75
2022/12/26 08:52:07;;;;;;;5.77;3.97;;;12.40;99.90;;;;;;4969939;28;20881;-75
2022/12/26 08:54:53;;;;;;;6.70;3.30;;;12.30;99.90;;;;;;4968218;28;20979;-75
2022/12/26 08:57:39;;;;;;;7.13;3.20;;;12.30;99.90;;;;;;4973432;28;20435;-75
2022/12/26 09:00:25;;;;;;;6.77;3.70;;;12.30;99.90;;;;;;4976669;28;20486;-75
2022/12/26 09:03:11;;;;;;;4.70;2.80;;;12.30;99.90;;;;;;4961592;28;20447;-76
2022/12/26 09:05:59;;;;;;;5.27;3.40;;;12.30;99.90;;;;;;4968409;28;20441;-75
2022/12/26 09:08:46;;;;;;;5.20;3.20;;;12.30;99.90;;;;;;4978953;28;20478;-76
2022/12/26 09:11:32;;;;;;;7.67;3.27;;;12.40;99.90;;;;;;4983435;28;21044;-76
2022/12/26 09:14:18;;;;;;;4.30;3.23;;;12.30;99.90;;;;;;4972338;28;20504;-76
2022/12/26 09:17:03;;;;;;;4.87;3.43;;;12.30;99.90;;;;;;4971324;28;20931;-75
2022/12/26 09:19:49;;;;;;;4.20;3.40;;;12.20;99.90;;;;;;4963862;28;20552;-75
2022/12/26 09:22:54;;;;;;;6.03;3.93;;;12.10;99.90;;;;;;4962453;28;20426;-75
2022/12/26 09:25:41;;;;;;;9.07;3.70;;;12.10;99.90;;;;;;4978428;28;20413;-75
2022/12/26 09:28:27;;;;;;;5.07;2.80;;;12.20;99.90;;;;;;4973785;28;20498;-75
2022/12/26 09:31:14;;;;;;;5.50;3.80;;;12.20;99.90;;;;;;4975165;28;20516;-75
2022/12/26 09:34:02;;;;;;;7.20;3.80;;;12.20;99.90;;;;;;4971782;28;20447;-74
2022/12/26 09:36:47;;;;;;;5.57;3.63;;;12.10;99.90;;;;;;4970350;28;20465;-75
2022/12/26 09:39:33;;;;;;;4.30;3.20;;;12.10;99.90;;;;;;4968888;28;20442;-75
2022/12/26 09:42:29;;;;;;;5.33;3.93;;;12.20;99.90;;;;;;4968108;28;20563;-75
2022/12/26 09:45:17;;;;;;;5.50;3.70;;;12.20;99.90;;;;;;4978751;28;20426;-74
2022/12/26 09:48:11;;;;;;;10.77;6.47;;;12.20;99.90;;;;;;4970838;28;20474;-74
2022/12/26 09:50:56;;;;;;;6.30;3.80;;;12.10;99.90;;;;;;4967100;28;20523;-73
2022/12/26 09:53:45;;;;;;;77.70;39.17;;;12.10;99.90;;;;;;4969501;28;20765;-74
2022/12/26 09:56:33;;;;;;;11.70;7.50;;;12.10;99.90;;;;;;4969757;28;20444;-73
2022/12/26 09:59:23;;;;;;;15.07;7.60;;;12.20;99.90;;;;;;4973251;28;20471;-73
2022/12/26 10:02:16;;;;;;;8.73;4.40;;;12.20;99.90;;;;;;4963010;28;20937;-75
2022/12/26 10:05:02;;;;;;;12.70;5.33;;;12.10;99.90;;;;;;4961999;28;20436;-74
2022/12/26 10:07:53;;;;;;;5.70;3.67;;;12.10;99.90;;;;;;4971363;28;20541;-73
2022/12/26 10:10:46;;;;;;;8.83;3.50;;;12.10;99.90;;;;;;4970134;28;20785;-73
2022/12/26 10:13:37;;;;;;;5.40;3.47;;;12.00;99.90;;;;;;4969023;28;20450;-73
2022/12/26 10:16:46;;;;;;;5.30;2.67;;;12.00;99.90;;;;;;4969254;28;21195;-73
2022/12/26 10:19:46;;;;;;;5.20;3.37;;;12.00;99.90;;;;;;4965522;28;20458;-75
2022/12/26 10:23:00;;;;;;;5.53;2.77;;;12.00;99.90;;;;;;4959763;28;20555;-75
2022/12/26 10:25:53;;;;;;;5.20;2.70;;;12.00;99.90;;;;;;4967269;28;20582;-75
2022/12/26 10:28:44;;;;;;;8.40;3.90;;;12.00;99.90;;;;;;4976971;28;20982;-75
2022/12/26 10:31:37;;;;;;;3.57;3.03;;;12.00;99.90;;;;;;4959242;28;20421;-75
2022/12/26 10:34:28;;;;;;;5.23;2.90;;;12.00;99.90;;;;;;4976931;28;20567;-76
2022/12/26 10:37:21;;;;;;;5.40;2.73;;;12.00;99.90;;;;;;4975863;28;20566;-75
2022/12/26 10:40:17;;;;;;;3.30;2.67;;;12.10;99.90;;;;;;4974161;28;20939;-75
2022/12/26 10:43:30;;;;;;;4.43;2.30;;;12.00;99.90;;;;;;4971848;28;21071;-75
2022/12/26 10:46:34;;;;;;;4.10;2.77;;;12.00;99.90;;;;;;4973067;28;20526;-75
2022/12/26 10:49:22;;;;;;;3.50;2.37;;;12.00;99.90;;;;;;4974555;28;20650;-75
2022/12/26 10:52:12;;;;;;;5.50;2.90;;;12.00;99.90;;;;;;4967186;28;20445;-75
2022/12/26 10:54:59;;;;;;;3.93;2.20;;;12.00;99.90;;;;;;4978105;28;21002;-75
2022/12/26 10:57:48;;;;;;;3.87;2.20;;;12.00;99.90;;;;;;4986968;28;20431;-75
2022/12/26 11:00:34;;;;;;;5.27;2.43;;;12.00;99.90;;;;;;4980902;28;20440;-75
2022/12/26 11:03:22;;;;;;;2.97;1.90;;;12.00;99.90;;;;;;4981336;28;20527;-75
2022/12/26 11:06:11;;;;;;;3.40;2.33;;;12.10;99.90;;;;;;4978822;28;20583;-75
2022/12/26 11:08:57;;;;;;;3.40;2.43;;;12.10;99.90;;;;;;4982407;28;20469;-75
2022/12/26 11:11:50;;;;;;;3.37;2.40;;;12.10;99.90;;;;;;4974211;28;20933;-75
2022/12/26 11:14:39;;;;;;;3.20;2.20;;;12.10;99.90;;;;;;4981048;28;20434;-75
2022/12/26 11:17:27;;;;;;;3.50;2.13;;;12.20;99.90;;;;;;4982227;28;20918;-75
2022/12/26 11:20:26;;;;;;;4.80;2.80;;;12.20;99.90;;;;;;4975849;28;20451;-75
2022/12/26 11:23:27;;;;;;;3.00;2.20;;;12.20;99.90;;;;;;4974920;28;20424;-75
2022/12/26 11:26:22;;;;;;;5.80;2.90;;;12.20;99.90;;;;;;4983721;28;20517;-75
2022/12/26 11:29:12;;;;;;;5.07;2.90;;;12.20;99.90;;;;;;4980547;28;20487;-75
2022/12/26 11:32:00;;;;;;;4.77;2.90;;;12.20;99.90;;;;;;4972122;28;20906;-75
2022/12/26 11:34:48;;;;;;;4.43;2.60;;;12.20;99.90;;;;;;4988672;28;20468;-75
2022/12/26 11:37:42;;;;;;;3.67;2.30;;;12.20;99.90;;;;;;4978798;28;20442;-75
2022/12/26 11:40:32;;;;;;;4.10;2.80;;;12.20;99.90;;;;;;4969581;28;21099;-75
2022/12/26 11:43:18;;;;;;;18.10;12.77;;;12.20;99.90;;;;;;4977232;28;20940;-75
2022/12/26 11:46:04;;;;;;;50.40;37.93;;;12.10;99.90;;;;;;4979658;28;20923;-75
2022/12/26 11:48:51;;;;;;;14.23;10.97;;;12.20;99.90;;;;;;4982262;28;20536;-75
2022/12/26 11:51:40;;;;;;;4.83;4.33;;;12.20;99.90;;;;;;4972041;28;20460;-75
2022/12/26 11:54:37;;;;;;;4.70;3.97;;;12.20;99.90;;;;;;4977609;28;20454;-75
2022/12/26 11:57:27;;;;;;;3.07;2.57;;;12.20;99.90;;;;;;4977730;28;20450;-75
2022/12/26 12:00:17;;;;;;;5.00;3.40;;;12.20;99.90;;;;;;4974864;28;20458;-75
2022/12/26 12:03:09;;;;;;;8.77;7.90;;;12.10;99.90;;;;;;4979093;28;20406;-75
2022/12/26 12:06:02;;;;;;;17.97;16.47;;;12.20;99.90;;;;;;4984023;28;20442;-75
2022/12/26 12:08:57;;;;;;;15.40;13.83;;;12.20;99.90;;;;;;4980613;28;20484;-75
2022/12/26 12:11:51;;;;;;;7.20;6.37;;;12.20;99.90;;;;;;4967653;28;20551;-75
2022/12/26 12:14:49;;;;;;;4.47;3.50;;;12.30;99.90;;;;;;4980405;28;20396;-75
2022/12/26 12:17:42;;;;;;;4.93;4.40;;;12.20;99.90;;;;;;4984021;28;20517;-75
2022/12/26 12:20:36;;;;;;;6.90;6.20;;;12.30;99.90;;;;;;4972439;28;20438;-75
2022/12/26 12:23:39;;;;;;;7.93;7.23;;;12.30;99.90;;;;;;4969687;28;20524;-75
2022/12/26 12:26:32;;;;;;;7.50;4.73;;;12.30;99.90;;;;;;4968296;28;20433;-75
2022/12/26 12:29:35;;;;;;;5.27;3.67;;;12.30;99.90;;;;;;4965867;28;20473;-74
2022/12/26 12:32:28;;;;;;;4.93;3.60;;;12.40;99.90;;;;;;4969821;28;20462;-75
2022/12/26 12:35:31;;;;;;;4.17;2.53;;;12.40;99.90;;;;;;4962091;28;20791;-75
2022/12/26 12:38:30;;;;;;;8.53;6.00;;;12.50;99.90;;;;;;4968271;28;20434;-75
2022/12/26 12:41:30;;;;;;;5.57;3.90;;;12.60;99.90;;;;;;4968111;28;20433;-77
2022/12/26 12:44:22;;;;;;;6.63;3.80;;;12.70;99.90;;;;;;4967379;28;20502;-75
2022/12/26 12:47:17;;;;;;;6.00;3.63;;;12.70;99.90;;;;;;4965923;28;20554;-77
2022/12/26 12:50:14;;;;;;;5.80;4.17;;;12.60;99.90;;;;;;4959814;28;20462;-77
2022/12/26 12:53:09;;;;;;;10.20;5.77;;;12.70;99.90;;;;;;4972891;28;20420;-77
2022/12/26 12:56:27;;;;;;;7.30;4.13;;;12.50;99.90;;;;;;4987570;28;20441;-77
2022/12/26 12:59:25;;;;;;;8.00;5.67;;;12.50;99.90;;;;;;4943256;28;20507;-77
2022/12/26 13:02:19;;;;;;;37.77;21.83;;;12.50;99.90;;;;;;4964818;28;20431;-77
2022/12/26 13:05:16;;;;;;;19.90;12.57;;;12.50;99.90;;;;;;4981077;28;20430;-76
2022/12/26 13:08:07;;;;;;;7.70;5.53;;;12.50;99.90;;;;;;4963820;28;20410;-77
2022/12/26 13:10:57;;;;;;;19.80;11.70;;;12.50;99.90;;;;;;4967723;28;20420;-77
2022/12/26 13:13:48;;;;;;;5.00;3.67;;;12.50;99.90;;;;;;4985717;28;20432;-77
2022/12/26 13:16:42;;;;;;;8.93;2.70;;;12.50;99.90;;;;;;4987332;28;20438;-77
2022/12/26 13:19:37;;;;;;;4.40;2.63;;;12.50;99.90;;;;;;4970763;28;20570;-77
2022/12/26 13:22:26;;;;;;;5.10;2.57;;;12.40;99.90;;;;;;4969506;28;20775;-77
2022/12/26 13:25:11;;;;;;;3.50;2.83;;;12.30;99.90;;;;;;4982361;28;20474;-77
2022/12/26 13:28:08;;;;;;;3.57;2.70;;;12.30;99.90;;;;;;4980683;28;20422;-77
2022/12/26 13:30:54;;;;;;;4.73;3.00;;;12.40;99.90;;;;;;4974503;28;20824;-77
2022/12/26 13:33:42;;;;;;;5.97;2.87;;;12.30;99.90;;;;;;4983622;28;20412;-77
2022/12/26 13:36:38;;;;;;;5.40;3.50;;;12.20;99.90;;;;;;4983064;28;20428;-77
2022/12/26 13:39:34;;;;;;;5.10;2.90;;;12.30;99.90;;;;;;4965691;28;20581;-77
2022/12/26 13:45:57;;;;;;;7.60;3.50;;;12.30;99.90;;;;;;4986094;28;20963;-77
2022/12/26 13:49:01;;;;;;;5.40;3.53;;;12.30;99.90;;;;;;4977897;28;20530;-77
2022/12/26 13:51:54;;;;;;;8.73;5.40;;;12.30;99.90;;;;;;4977583;28;20454;-78
2022/12/26 13:55:26;;;;;;;6.47;4.40;;;12.40;99.90;;;;;;4984353;28;20525;-77
2022/12/26 13:58:36;;;;;;;11.47;10.37;;;12.40;99.90;;;;;;4944746;28;20442;-78
2022/12/26 14:01:35;;;;;;;16.53;14.03;;;12.40;99.90;;;;;;4974614;28;20423;-79
2022/12/26 14:04:37;;;;;;;6.90;5.97;;;12.50;99.90;;;;;;4983209;28;20786;-78
2022/12/26 14:07:32;;;;;;;10.17;8.80;;;12.50;99.90;;;;;;4971244;28;20583;-79
2022/12/26 14:10:23;;;;;;;3.60;2.70;;;12.40;99.90;;;;;;4971637;28;20490;-79
2022/12/26 14:13:32;;;;;;;21.13;13.23;;;12.30;99.90;;;;;;4981915;28;20796;-79
2022/12/26 14:16:25;;;;;;;6.20;4.40;;;12.30;99.90;;;;;;4988490;28;20657;-79
2022/12/26 14:19:32;;;;;;;7.97;5.90;;;12.30;99.90;;;;;;4977479;28;20472;-79
2022/12/26 14:22:26;;;;;;;5.53;3.90;;;12.30;99.90;;;;;;4979852;28;20498;-80
2022/12/26 14:25:21;;;;;;;6.67;5.50;;;12.20;99.90;;;;;;4983931;28;20468;-79
2022/12/26 14:28:18;;;;;;;4.60;3.13;;;12.20;99.90;;;;;;4986946;28;20405;-79
2022/12/26 14:31:18;;;;;;;4.60;3.70;;;12.20;99.90;;;;;;4977709;28;20398;-79
2022/12/26 14:34:14;;;;;;;7.00;5.57;;;12.20;99.90;;;;;;4990010;28;20449;-78
2022/12/26 14:37:09;;;;;;;3.80;3.00;;;12.10;99.90;;;;;;4978776;28;21174;-78
2022/12/26 14:40:07;;;;;;;5.50;3.57;;;12.10;99.90;;;;;;4977822;28;20487;-80
2022/12/26 14:43:32;;;;;;;12.83;10.73;;;12.10;99.90;;;;;;4986589;28;20455;-79
2022/12/26 14:46:56;;;;;;;10.17;8.37;;;12.10;99.90;;;;;;4982284;28;20486;-79
2022/12/26 14:49:42;;;;;;;25.90;22.87;;;12.10;99.90;;;;;;4984817;28;20812;-79
2022/12/26 14:52:39;;;;;;;28.50;25.60;;;12.00;99.90;;;;;;4987077;28;20958;-79
2022/12/26 14:55:47;;;;;;;29.10;23.53;;;12.00;99.90;;;;;;4988939;28;20594;-79
2022/12/26 14:58:40;;;;;;;6.70;4.70;;;11.90;99.90;;;;;;4975063;28;20474;-78
2022/12/26 15:01:48;;;;;;;6.73;4.37;;;11.90;99.90;;;;;;4980503;28;20414;-80
2022/12/26 15:05:08;;;;;;;9.30;5.83;;;11.80;99.90;;;;;;4981852;28;20839;-79
2022/12/26 15:08:22;;;;;;;13.73;8.10;;;11.90;99.90;;;;;;4973303;28;20414;-79
2022/12/26 15:11:38;;;;;;;259.50;184.17;;;11.90;99.90;;;;;;4986107;28;20582;-80
2022/12/26 15:14:56;;;;;;;18.10;12.57;;;11.90;99.90;;;;;;4972498;28;20446;-79
2022/12/26 15:17:50;;;;;;;11.43;8.03;;;11.90;99.90;;;;;;4983087;28;20426;-79
2022/12/26 15:21:06;;;;;;;53.17;36.03;;;11.90;99.90;;;;;;4985962;28;20485;-79
2022/12/26 15:24:24;;;;;;;16.17;10.40;;;11.90;99.90;;;;;;4983675;28;20578;-79
2022/12/26 15:27:33;;;;;;;14.63;9.33;;;12.00;99.90;;;;;;4969781;28;20450;-79
2022/12/26 15:30:49;;;;;;;19.43;14.53;;;12.00;99.90;;;;;;4978959;28;20498;-78
2022/12/26 15:33:39;;;;;;;8.53;6.37;;;12.00;99.90;;;;;;4988736;28;20405;-79
2022/12/26 15:36:32;;;;;;;20.47;14.10;;;12.00;99.90;;;;;;4987215;28;20454;-79
2022/12/26 15:39:25;;;;;;;10.03;7.20;;;12.00;99.90;;;;;;4967413;28;21004;-79
2022/12/26 15:42:30;;;;;;;7.60;3.40;;;12.00;99.90;;;;;;4980086;28;20460;-79
2022/12/26 15:45:33;;;;;;;11.83;5.80;;;12.00;99.90;;;;;;4979434;28;20948;-79
2022/12/26 15:48:33;;;;;;;4.23;3.00;;;12.00;99.90;;;;;;4971263;28;20451;-79
2022/12/26 15:51:24;;;;;;;4.50;3.27;;;12.10;99.90;;;;;;4982799;28;20401;-79
2022/12/26 15:54:24;;;;;;;4.57;2.50;;;12.00;99.90;;;;;;4984712;28;20430;-79
2022/12/26 15:57:15;;;;;;;3.67;3.00;;;12.00;99.90;;;;;;4986814;28;20451;-78
2022/12/26 16:00:11;;;;;;;9.73;5.20;;;12.00;99.90;;;;;;4971191;28;20433;-78
2022/12/26 16:03:15;;;;;;;7.73;2.73;;;12.00;99.90;;;;;;4976819;28;20571;-79
2022/12/26 16:06:26;;;;;;;28.17;12.63;;;12.00;99.90;;;;;;4978550;28;20787;-79
2022/12/26 16:09:24;;;;;;;27.73;11.30;;;12.00;99.90;;;;;;4971134;28;20474;-79
2022/12/26 16:12:23;;;;;;;17.00;7.83;;;12.10;99.90;;;;;;4983284;28;20801;-78
2022/12/26 16:15:16;;;;;;;5.10;3.50;;;12.00;99.90;;;;;;4978222;28;20438;-76
2022/12/26 16:18:25;;;;;;;9.53;4.70;;;12.10;99.90;;;;;;4974073;28;20470;-79
2022/12/26 16:24:18;;;;;;;7.83;4.43;;;12.10;99.90;;;;;;4985571;28;20460;-79
2022/12/26 16:27:05;;;;;;;4.20;3.30;;;12.10;99.90;;;;;;4977335;28;20519;-78
2022/12/26 16:29:54;;;;;;;5.23;2.40;;;12.00;99.90;;;;;;4978409;28;20575;-79
2022/12/26 16:32:42;;;;;;;4.77;3.00;;;11.80;99.90;;;;;;4984907;28;20439;-79
2022/12/26 16:35:33;;;;;;;7.03;3.07;;;11.70;99.90;;;;;;4984121;28;20434;-79
2022/12/26 16:38:24;;;;;;;8.00;4.57;;;11.70;99.90;;;;;;4966719;28;20467;-79
2022/12/26 16:41:20;;;;;;;8.17;4.10;;;11.70;99.90;;;;;;4987015;28;20464;-78
2022/12/26 16:44:27;;;;;;;5.83;3.93;;;11.70;99.90;;;;;;4984458;28;20567;-79
2022/12/26 16:47:15;;;;;;;5.97;2.70;;;11.60;99.90;;;;;;4975213;28;20455;-79
2022/12/26 16:50:04;;;;;;;5.70;3.63;;;11.60;99.90;;;;;;4983703;28;20566;-79
2022/12/26 16:53:01;;;;;;;5.57;3.10;;;11.60;99.90;;;;;;4991713;28;20435;-79
2022/12/26 16:55:50;;;;;;;7.10;2.20;;;11.50;99.90;;;;;;4985838;28;20518;-79
2022/12/26 16:58:37;;;;;;;3.30;2.00;;;11.50;99.90;;;;;;4971474;28;20475;-79
2022/12/26 17:01:23;;;;;;;3.20;1.50;;;11.30;99.90;;;;;;4984751;28;20421;-78
2022/12/26 17:04:18;;;;;;;5.30;1.53;;;11.10;99.90;;;;;;4988243;28;20449;-78
2022/12/26 17:07:07;;;;;;;2.87;1.30;;;11.00;99.90;;;;;;4972146;28;20444;-79
2022/12/26 17:09:58;;;;;;;2.13;1.33;;;11.10;99.90;;;;;;4974617;28;20473;-79